Time;durP1;ratioP1;P1;durP2;ratioP2;P2;SDS_P1;SDS_P2;PMS_P1;PMS_P2;Temp;Humidity;BMP_temperature;BMP_pressure;BME280_temperature;BME280_humidity;BME280_pressure;Samples;Min_cycle;Max_cycle;Signal;HPM_P1;HPM_P2
2024/01/22 00:02:15;;;;;;;16.45;6.88;;;;;;;-3.72;100.00;94722.53;5048757;28;20110;-66
2024/01/22 00:04:42;;;;;;;16.63;7.28;;;;;;;-3.65;100.00;94720.22;5048309;28;20044;-66
2024/01/22 00:07:09;;;;;;;14.60;6.65;;;;;;;-3.58;100.00;94714.41;5049182;28;20041;-66
2024/01/22 00:09:35;;;;;;;13.25;6.45;;;;;;;-3.60;100.00;94717.41;5048497;28;20094;-66
2024/01/22 00:12:02;;;;;;;15.65;7.13;;;;;;;-3.58;100.00;94717.09;5064078;28;20051;-66
2024/01/22 00:14:29;;;;;;;17.63;8.23;;;;;;;-3.53;100.00;94709.72;5048421;28;20048;-66
2024/01/22 00:16:56;;;;;;;14.75;6.32;;;;;;;-3.50;100.00;94711.78;5048876;28;20386;-66
2024/01/22 00:19:23;;;;;;;14.68;6.72;;;;;;;-3.51;100.00;94706.72;5049618;28;20405;-66
2024/01/22 00:21:49;;;;;;;14.50;6.30;;;;;;;-3.46;100.00;94710.09;5052357;28;20385;-68
2024/01/22 00:24:16;;;;;;;18.02;8.00;;;;;;;-3.42;100.00;94697.63;5067764;28;20478;-67
2024/01/22 00:26:43;;;;;;;28.77;12.30;;;;;;;-3.44;100.00;94702.53;5050396;28;20075;-68
2024/01/22 00:29:10;;;;;;;20.88;8.80;;;;;;;-3.40;100.00;94697.34;5052849;28;20033;-66
2024/01/22 00:31:36;;;;;;;17.35;7.53;;;;;;;-3.38;100.00;94691.63;5047680;28;20508;-66
2024/01/22 00:34:03;;;;;;;16.30;7.93;;;;;;;-3.44;100.00;94694.47;5052325;28;20045;-67
2024/01/22 00:36:30;;;;;;;16.73;8.10;;;;;;;-3.41;100.00;94693.06;5051880;28;20049;-65
2024/01/22 00:38:56;;;;;;;17.48;8.30;;;;;;;-3.41;100.00;94693.06;5051256;28;20689;-67
2024/01/22 00:41:23;;;;;;;17.38;8.30;;;;;;;-3.41;100.00;94698.41;5052141;28;20459;-66
2024/01/22 00:43:50;;;;;;;16.80;8.13;;;;;;;-3.35;100.00;94693.72;5052215;28;20474;-67
2024/01/22 00:46:17;;;;;;;20.80;8.65;;;;;;;-3.33;100.00;94688.84;5052369;28;20041;-67
2024/01/22 00:48:43;;;;;;;18.10;8.10;;;;;;;-3.33;100.00;94699.56;5067162;28;20048;-66
2024/01/22 00:51:10;;;;;;;20.50;8.93;;;;;;;-3.37;100.00;94691.34;5052457;28;20037;-66
2024/01/22 00:53:37;;;;;;;18.80;8.27;;;;;;;-3.37;100.00;94687.88;5051376;28;20071;-66
2024/01/22 00:56:04;;;;;;;20.50;8.80;;;;;;;-3.35;100.00;94683.78;5050888;28;20410;-66
2024/01/22 00:58:35;;;;;;;21.13;8.68;;;;;;;-3.31;100.00;94682.06;5051300;28;20093;-66
2024/01/22 01:01:02;;;;;;;17.58;7.78;;;;;;;-3.29;100.00;94681.75;5051885;28;20055;-67
2024/01/22 01:03:29;;;;;;;18.92;8.98;;;;;;;-3.27;100.00;94683.03;5051365;28;20488;-66
2024/01/22 01:05:56;;;;;;;19.98;8.88;;;;;;;-3.32;100.00;94661.69;5052047;28;20520;-67
2024/01/22 01:08:22;;;;;;;20.73;9.45;;;;;;;-3.35;100.00;94667.66;5051996;28;20045;-66
2024/01/22 01:10:49;;;;;;;21.73;9.35;;;;;;;-3.40;100.00;94662.44;5051228;28;20448;-67
2024/01/22 01:13:17;;;;;;;21.60;9.00;;;;;;;-3.42;100.00;94654.69;5051796;28;20436;-67
2024/01/22 01:15:44;;;;;;;19.23;9.27;;;;;;;-3.41;100.00;94652.81;5049998;28;20432;-67
2024/01/22 01:18:12;;;;;;;18.17;8.50;;;;;;;-3.37;100.00;94644.94;5051878;28;20513;-67
2024/01/22 01:20:39;;;;;;;17.50;9.00;;;;;;;-3.37;100.00;94634.97;5050992;28;20044;-67
2024/01/22 01:23:06;;;;;;;20.10;8.45;;;;;;;-3.42;100.00;94630.56;5050529;28;20383;-67
2024/01/22 01:25:33;;;;;;;23.92;9.75;;;;;;;-3.40;100.00;94616.84;5051087;28;20049;-67
2024/01/22 01:28:00;;;;;;;18.63;8.73;;;;;;;-3.43;100.00;94628.94;5051562;28;20105;-67
2024/01/22 01:30:27;;;;;;;20.08;9.70;;;;;;;-3.35;100.00;94610.53;5051181;28;20078;-64
2024/01/22 01:32:53;;;;;;;20.63;9.30;;;;;;;-3.28;100.00;94614.34;5050590;28;20481;-67
2024/01/22 01:35:21;;;;;;;19.42;8.82;;;;;;;-3.34;100.00;94599.47;5051239;28;20602;-67
2024/01/22 01:37:47;;;;;;;18.60;9.43;;;;;;;-3.35;100.00;94607.84;5051098;28;20048;-67
2024/01/22 01:40:15;;;;;;;20.00;8.40;;;;;;;-3.29;100.00;94602.00;5051481;28;20044;-67
2024/01/22 01:42:45;;;;;;;19.90;8.43;;;;;;;-3.23;100.00;94610.72;5050538;28;20057;-67
2024/01/22 01:45:16;;;;;;;20.15;8.70;;;;;;;-3.19;100.00;94602.84;5051247;28;20052;-67
2024/01/22 01:47:47;;;;;;;17.48;8.23;;;;;;;-3.19;100.00;94605.53;5050670;28;20437;-67
2024/01/22 01:50:16;;;;;;;20.83;8.98;;;;;;;-3.22;100.00;94607.72;5051214;28;20530;-67
2024/01/22 01:52:44;;;;;;;24.08;10.30;;;;;;;-3.26;100.00;94597.91;5049195;28;20049;-67
2024/01/22 01:55:12;;;;;;;21.25;10.00;;;;;;;-3.23;100.00;94599.97;5051247;28;20045;-67
2024/01/22 01:57:39;;;;;;;20.88;9.07;;;;;;;-3.25;100.00;94584.19;5050356;28;20383;-67
2024/01/22 02:00:12;;;;;;;18.98;8.23;;;;;;;-3.25;100.00;94586.88;5051248;28;20049;-66
2024/01/22 02:02:39;;;;;;;20.83;9.13;;;;;;;-3.23;100.00;94581.19;5041913;28;20037;-67
2024/01/22 02:05:07;;;;;;;18.67;9.07;;;;;;;-3.23;100.00;94567.78;5050701;28;20055;-67
2024/01/22 02:07:34;;;;;;;17.85;8.43;;;;;;;-3.18;100.00;94569.50;5049897;28;20048;-66
2024/01/22 02:10:01;;;;;;;19.95;8.75;;;;;;;-3.15;100.00;94561.63;5065875;28;20070;-67
2024/01/22 02:12:27;;;;;;;19.48;9.20;;;;;;;-3.27;100.00;94564.91;5050090;28;20048;-65
2024/01/22 02:14:54;;;;;;;19.75;8.82;;;;;;;-3.19;100.00;94551.84;5050398;28;20045;-67
2024/01/22 02:17:21;;;;;;;19.95;8.73;;;;;;;-3.19;100.00;94554.53;5050252;28;20040;-67
2024/01/22 02:19:49;;;;;;;21.33;9.82;;;;;;;-3.14;100.00;94546.31;5049975;28;20055;-67
2024/01/22 02:22:16;;;;;;;19.15;8.70;;;;;;;-3.10;100.00;94553.44;5050475;28;20040;-67
2024/01/22 02:24:43;;;;;;;19.83;8.55;;;;;;;-3.11;100.00;94556.44;5050052;28;20052;-67
2024/01/22 02:27:10;;;;;;;19.58;9.18;;;;;;;-3.15;100.00;94563.53;5050389;28;20045;-67
2024/01/22 02:29:37;;;;;;;21.05;9.10;;;;;;;-3.13;100.00;94562.13;5049578;28;20094;-66
2024/01/22 02:32:03;;;;;;;19.88;9.13;;;;;;;-3.09;100.00;94560.38;5050437;28;20049;-67
2024/01/22 02:34:30;;;;;;;18.83;8.88;;;;;;;-3.10;100.00;94558.81;5049586;28;20053;-66
2024/01/22 02:36:57;;;;;;;19.75;8.40;;;;;;;-3.10;100.00;94555.31;5050095;28;20045;-67
2024/01/22 02:39:24;;;;;;;19.27;8.85;;;;;;;-3.11;100.00;94543.00;5048823;28;20072;-67
2024/01/22 02:41:51;;;;;;;20.02;8.98;;;;;;;-3.14;100.00;94552.50;5049652;28;20037;-67
2024/01/22 02:44:17;;;;;;;20.17;9.18;;;;;;;-3.12;100.00;94539.53;5050146;28;20085;-67
2024/01/22 02:46:44;;;;;;;18.73;8.93;;;;;;;-3.10;100.00;94547.25;5049689;28;20494;-67
2024/01/22 02:49:11;;;;;;;19.65;8.73;;;;;;;-3.03;100.00;94539.56;5049996;28;20051;-67
2024/01/22 02:51:42;;;;;;;19.90;8.98;;;;;;;-3.02;100.00;94541.13;5049653;28;20045;-67
2024/01/22 02:54:09;;;;;;;18.45;8.30;;;;;;;-3.02;100.00;94536.56;5049988;28;20139;-67
2024/01/22 02:56:36;;;;;;;21.90;9.70;;;;;;;-2.99;100.00;94537.81;5049375;28;20051;-66
2024/01/22 02:59:03;;;;;;;18.67;8.60;;;;;;;-2.92;100.00;94527.38;5049526;28;20045;-67
2024/01/22 03:01:30;;;;;;;20.55;8.32;;;;;;;-2.86;100.00;94519.97;5047429;28;20048;-66
2024/01/22 03:03:57;;;;;;;19.35;8.70;;;;;;;-2.85;100.00;94511.59;5049983;28;20057;-67
2024/01/22 03:06:23;;;;;;;19.50;8.77;;;;;;;-2.85;100.00;94514.28;5048559;28;20049;-67
2024/01/22 03:08:50;;;;;;;19.65;8.98;;;;;;;-2.87;100.00;94508.44;5049230;28;20044;-67
2024/01/22 03:11:17;;;;;;;17.92;8.93;;;;;;;-2.83;100.00;94504.00;5049438;28;20067;-67
2024/01/22 03:13:44;;;;;;;18.70;9.00;;;;;;;-2.78;100.00;94513.81;5049197;28;20041;-67
2024/01/22 03:16:11;;;;;;;19.88;9.32;;;;;;;-2.67;100.00;94522.34;5049302;28;20051;-67
2024/01/22 03:18:38;;;;;;;19.63;9.00;;;;;;;-2.62;100.00;94527.56;5048884;28;20053;-67
2024/01/22 03:21:05;;;;;;;21.40;9.60;;;;;;;-2.55;100.00;94519.03;5049174;28;20459;-67
2024/01/22 03:23:32;;;;;;;20.35;9.15;;;;;;;-2.61;100.00;94513.03;5049034;28;20053;-67
2024/01/22 03:25:58;;;;;;;21.83;9.40;;;;;;;-2.51;100.00;94504.63;5049224;28;20486;-67
2024/01/22 03:28:26;;;;;;;18.75;8.65;;;;;;;-2.47;100.00;94510.97;5049409;28;20652;-67
2024/01/22 03:30:53;;;;;;;20.40;9.50;;;;;;;-2.55;100.00;94495.63;5048491;28;20809;-67
2024/01/22 03:33:19;;;;;;;18.70;8.80;;;;;;;-2.57;100.00;94503.22;5049256;28;20039;-67
2024/01/22 03:35:46;;;;;;;21.35;8.77;;;;;;;-2.54;100.00;94489.13;5048594;28;20048;-67
2024/01/22 03:38:13;;;;;;;19.02;8.50;;;;;;;-2.80;100.00;94497.22;5049168;28;20048;-66
2024/01/22 03:40:40;;;;;;;17.17;8.73;;;;;;;-2.72;100.00;94487.56;5048864;28;20040;-67
2024/01/22 03:43:07;;;;;;;18.42;9.10;;;;;;;-2.83;100.00;94482.53;5049179;28;20036;-67
2024/01/22 03:45:33;;;;;;;18.67;8.38;;;;;;;-2.86;100.00;94472.44;5048634;28;20037;-67
2024/01/22 03:48:00;;;;;;;18.80;8.52;;;;;;;-2.91;100.00;94469.91;5049092;28;20041;-67
2024/01/22 03:50:27;;;;;;;15.60;7.72;;;;;;;-2.83;100.00;94473.69;5049162;28;20048;-66
2024/01/22 03:52:54;;;;;;;19.70;8.38;;;;;;;-2.75;100.00;94474.78;5047949;28;21488;-67
2024/01/22 03:55:20;;;;;;;17.73;9.05;;;;;;;-2.73;100.00;94480.63;5048809;28;20053;-67
2024/01/22 03:57:47;;;;;;;27.02;10.70;;;;;;;-2.67;100.00;94488.22;5048331;28;20056;-67
2024/01/22 04:00:14;;;;;;;20.10;8.77;;;;;;;-2.71;100.00;94484.59;5049237;28;20235;-67
2024/01/22 04:02:41;;;;;;;17.13;8.40;;;;;;;-2.74;100.00;94481.72;5046427;28;20103;-67
2024/01/22 04:05:09;;;;;;;18.88;8.88;;;;;;;-2.75;100.00;94467.53;5048644;28;20049;-67
2024/01/22 04:07:37;;;;;;;15.60;7.63;;;;;;;-2.68;100.00;94481.25;5048599;28;20037;-67
2024/01/22 04:10:04;;;;;;;17.30;7.28;;;;;;;-2.74;100.00;94461.03;5048860;28;20043;-67
2024/01/22 04:12:30;;;;;;;17.80;8.88;;;;;;;-2.63;100.00;94459.59;5048592;28;20450;-67
2024/01/22 04:14:57;;;;;;;27.80;12.95;;;;;;;-2.53;100.00;94460.38;5064167;28;20037;-67
2024/01/22 04:17:24;;;;;;;19.08;8.77;;;;;;;-2.44;100.00;94467.31;5048913;28;20432;-67
2024/01/22 04:19:51;;;;;;;17.73;9.05;;;;;;;-2.46;100.00;94468.75;5048176;28;20049;-67
2024/01/22 04:22:17;;;;;;;23.17;11.23;;;;;;;-2.36;100.00;94463.03;5048832;28;20049;-67
2024/01/22 04:24:44;;;;;;;19.90;9.35;;;;;;;-2.45;100.00;94462.28;5048011;28;20207;-67
2024/01/22 04:27:11;;;;;;;17.17;7.53;;;;;;;-2.46;100.00;94464.16;5048935;28;20049;-67
2024/01/22 04:29:38;;;;;;;14.85;7.05;;;;;;;-2.46;100.00;94455.31;5048137;28;20123;-67
2024/01/22 04:32:05;;;;;;;15.38;6.60;;;;;;;-2.44;100.00;94461.94;5048626;28;20049;-67
2024/01/22 04:34:32;;;;;;;16.45;7.00;;;;;;;-2.46;100.00;94458.78;5047836;28;20053;-67
2024/01/22 04:36:59;;;;;;;16.05;7.30;;;;;;;-2.49;100.00;94462.09;5047782;28;20218;-67
2024/01/22 04:39:25;;;;;;;14.50;7.55;;;;;;;-2.51;100.00;94450.09;5048667;28;20049;-67
2024/01/22 04:41:53;;;;;;;16.15;7.30;;;;;;;-2.44;100.00;94455.78;5047455;28;20906;-67
2024/01/22 04:44:20;;;;;;;22.23;11.63;;;;;;;-2.38;100.00;94448.34;5048610;28;20071;-67
2024/01/22 04:46:46;;;;;;;18.48;8.43;;;;;;;-2.39;100.00;94447.56;5047904;28;20067;-67
2024/01/22 04:49:14;;;;;;;16.65;7.80;;;;;;;-2.37;100.00;94458.78;5048439;28;20053;-67
2024/01/22 04:51:44;;;;;;;14.90;6.25;;;;;;;-2.33;100.00;94453.56;5047508;28;20504;-67
2024/01/22 04:54:11;;;;;;;16.95;6.78;;;;;;;-2.27;100.00;94447.66;5048735;28;20069;-67
2024/01/22 04:56:42;;;;;;;15.85;7.85;;;;;;;-2.25;100.00;94452.72;5047909;28;20057;-67
2024/01/22 04:59:09;;;;;;;17.70;7.43;;;;;;;-2.16;100.00;94444.63;5048470;28;20428;-67
2024/01/22 05:01:36;;;;;;;15.27;7.35;;;;;;;-2.11;100.00;94447.94;5045978;28;20045;-67
2024/01/22 05:04:04;;;;;;;14.30;6.28;;;;;;;-2.02;100.00;94455.97;5048705;28;20045;-67
2024/01/22 05:06:31;;;;;;;16.33;7.90;;;;;;;-2.01;100.00;94454.88;5048290;28;20057;-67
2024/01/22 05:08:57;;;;;;;19.17;7.75;;;;;;;-1.96;100.00;94449.28;5052086;28;20041;-67
2024/01/22 05:11:24;;;;;;;22.73;10.25;;;;;;;-1.85;100.00;94461.28;5050744;28;20037;-67
2024/01/22 05:13:52;;;;;;;21.50;10.55;;;;;;;-1.78;100.00;94452.69;5051674;28;20036;-67
2024/01/22 05:16:21;;;;;;;14.88;7.75;;;;;;;-1.83;100.00;94456.38;5051552;28;20052;-67
2024/01/22 05:18:50;;;;;;;14.85;7.65;;;;;;;-1.74;100.00;94450.16;5051352;28;20049;-67
2024/01/22 05:21:17;;;;;;;14.23;7.55;;;;;;;-1.70;100.00;94435.72;5051856;28;20043;-67
2024/01/22 05:23:44;;;;;;;14.85;7.60;;;;;;;-1.76;100.00;94428.16;5051163;28;20059;-67
2024/01/22 05:26:12;;;;;;;22.30;10.38;;;;;;;-1.73;100.00;94425.63;5051145;28;20037;-67
2024/01/22 05:28:38;;;;;;;17.48;8.25;;;;;;;-1.75;100.00;94422.47;5050653;28;20405;-67
2024/01/22 05:31:05;;;;;;;16.30;7.10;;;;;;;-1.65;100.00;94434.75;5051215;28;20070;-67
2024/01/22 05:33:32;;;;;;;14.93;7.82;;;;;;;-1.58;100.00;94434.25;5050830;28;20599;-66
2024/01/22 05:35:59;;;;;;;14.70;6.88;;;;;;;-1.43;100.00;94425.59;5051099;28;20121;-67
2024/01/22 05:38:26;;;;;;;15.23;7.38;;;;;;;-1.37;100.00;94429.66;5051005;28;20043;-67
2024/01/22 05:40:53;;;;;;;17.88;8.32;;;;;;;-1.24;100.00;94427.84;5049393;28;20415;-67
2024/01/22 05:43:20;;;;;;;16.67;8.63;;;;;;;-1.18;100.00;94433.84;5050549;28;20049;-67
2024/01/22 05:45:46;;;;;;;19.07;9.60;;;;;;;-1.30;100.00;94435.31;5050405;28;20417;-67
2024/01/22 05:48:13;;;;;;;30.70;13.18;;;;;;;-1.17;100.00;94438.88;5051001;28;20052;-67
2024/01/22 05:50:40;;;;;;;16.75;8.23;;;;;;;-1.17;100.00;94433.50;5050655;28;20047;-66
2024/01/22 05:53:07;;;;;;;19.48;9.35;;;;;;;-1.13;100.00;94430.94;5050755;28;20063;-67
2024/01/22 05:55:35;;;;;;;16.40;8.02;;;;;;;-1.07;100.00;94421.53;5050705;28;20059;-66
2024/01/22 05:58:02;;;;;;;16.83;8.10;;;;;;;-1.07;100.00;94414.22;5050928;28;20611;-67
2024/01/22 06:00:29;;;;;;;20.33;9.95;;;;;;;-0.98;100.00;94421.50;5050270;28;20075;-66
2024/01/22 06:02:58;;;;;;;28.35;12.93;;;;;;;-1.13;100.00;94417.47;5050719;28;20413;-67
2024/01/22 06:05:26;;;;;;;23.48;10.25;;;;;;;-1.35;100.00;94423.97;5050646;28;20051;-67
2024/01/22 06:07:53;;;;;;;17.85;8.70;;;;;;;-1.29;100.00;94420.75;5049965;28;20045;-67
2024/01/22 06:10:19;;;;;;;16.60;8.37;;;;;;;-1.32;100.00;94417.94;5050527;28;20048;-67
2024/01/22 06:12:47;;;;;;;19.50;9.63;;;;;;;-1.23;100.00;94419.44;5050199;28;20110;-66
2024/01/22 06:15:14;;;;;;;19.00;10.15;;;;;;;-1.10;100.00;94432.97;5050598;28;20110;-67
2024/01/22 06:17:41;;;;;;;14.50;7.60;;;;;;;-0.96;100.00;94430.03;5049586;28;20401;-67
2024/01/22 06:20:09;;;;;;;15.13;7.53;;;;;;;-0.84;100.00;94420.09;5050044;28;20053;-66
2024/01/22 06:22:36;;;;;;;14.20;7.27;;;;;;;-0.82;100.00;94408.97;5049908;28;20037;-66
2024/01/22 06:25:04;;;;;;;20.85;9.63;;;;;;;-0.82;100.00;94407.06;5050392;28;20113;-66
2024/01/22 06:27:31;;;;;;;14.75;7.35;;;;;;;-0.72;100.00;94407.78;5049782;28;20237;-66
2024/01/22 06:29:59;;;;;;;16.33;7.75;;;;;;;-0.67;100.00;94402.94;5050162;28;20041;-65
2024/01/22 06:32:26;;;;;;;13.68;7.22;;;;;;;-0.59;100.00;94400.53;5050138;28;20049;-66
2024/01/22 06:34:56;;;;;;;14.95;7.82;;;;;;;-0.58;100.00;94397.50;5049267;28;21406;-66
2024/01/22 06:37:24;;;;;;;12.65;6.47;;;;;;;-0.42;100.00;94408.44;5050047;28;20044;-66
2024/01/22 06:39:51;;;;;;;13.82;6.35;;;;;;;-0.38;100.00;94397.75;5064958;28;20052;-66
2024/01/22 06:42:17;;;;;;;13.07;6.85;;;;;;;-0.31;100.00;94408.78;5049672;28;20094;-65
2024/01/22 06:44:57;;;;;;;13.02;6.20;;;;;;;-0.32;100.00;94402.63;5049430;28;20865;-65
2024/01/22 06:47:24;;;;;;;13.73;6.30;;;;;;;-0.25;100.00;94405.53;5065726;28;20048;-66
2024/01/22 06:49:52;;;;;;;14.70;7.40;;;;;;;-0.31;100.00;94401.47;5049768;28;20037;-65
2024/01/22 06:52:19;;;;;;;17.83;9.57;;;;;;;-0.42;100.00;94403.81;5050081;28;20097;-65
2024/01/22 06:54:46;;;;;;;13.82;7.10;;;;;;;-0.33;100.00;94414.50;5049491;28;20048;-65
2024/01/22 06:57:12;;;;;;;18.95;8.27;;;;;;;-0.28;100.00;94419.72;5050386;28;20474;-65
2024/01/22 06:59:39;;;;;;;15.60;8.70;;;;;;;-0.27;100.00;94413.19;5049847;28;20390;-65
2024/01/22 07:02:06;;;;;;;14.50;7.50;;;;;;;-0.18;100.00;94420.38;5049955;28;20033;-66
2024/01/22 07:04:33;;;;;;;12.80;6.35;;;;;;;-0.24;100.00;94414.44;5049012;28;20114;-65
2024/01/22 07:06:59;;;;;;;12.60;6.30;;;;;;;-0.21;100.00;94411.06;5049876;28;20047;-65
2024/01/22 07:09:26;;;;;;;14.05;7.15;;;;;;;-0.15;100.00;94417.81;5049848;28;20044;-65
2024/01/22 07:11:53;;;;;;;14.20;7.30;;;;;;;-0.25;100.00;94418.25;5049356;28;20029;-65
2024/01/22 07:14:20;;;;;;;12.15;6.50;;;;;;;-0.25;100.00;94410.16;5049825;28;20045;-65
2024/01/22 07:16:47;;;;;;;12.10;6.40;;;;;;;-0.23;100.00;94432.19;5049234;28;20405;-65
2024/01/22 07:19:14;;;;;;;14.95;7.32;;;;;;;-0.21;100.00;94421.84;5049188;28;20053;-65
2024/01/22 07:21:41;;;;;;;13.90;7.00;;;;;;;-0.27;100.00;94425.88;5047979;28;20049;-65
2024/01/22 07:24:07;;;;;;;13.25;7.13;;;;;;;-0.42;100.00;94419.22;5049429;28;20037;-66
2024/01/22 07:26:34;;;;;;;13.30;6.68;;;;;;;-0.28;100.00;94426.97;5048933;28;20257;-65
2024/01/22 07:29:01;;;;;;;11.23;6.50;;;;;;;-0.24;100.00;94425.22;5048646;28;20094;-65
2024/01/22 07:31:28;;;;;;;12.48;6.72;;;;;;;-0.18;100.00;94417.69;5046461;28;20070;-64
2024/01/22 07:33:55;;;;;;;12.10;6.50;;;;;;;-0.14;100.00;94419.41;5038724;28;20055;-65
2024/01/22 07:36:22;;;;;;;11.53;6.17;;;;;;;-0.09;100.00;94411.06;5049699;28;20098;-65
2024/01/22 07:38:54;;;;;;;14.43;7.57;;;;;;;-0.02;100.00;94414.00;5048838;28;20051;-65
2024/01/22 07:41:21;;;;;;;13.88;8.02;;;;;;;0.05;100.00;94415.38;5049428;28;20048;-65
2024/01/22 07:43:48;;;;;;;16.35;8.32;;;;;;;0.02;100.00;94421.41;5049021;28;20471;-65
2024/01/22 07:46:14;;;;;;;13.05;6.45;;;;;;;0.15;100.00;94421.09;5049073;28;20460;-65
2024/01/22 07:48:41;;;;;;;12.38;6.32;;;;;;;0.26;100.00;94415.25;5048848;28;20053;-65
2024/01/22 07:51:08;;;;;;;13.95;6.53;;;;;;;0.33;100.00;94408.16;5049574;28;20043;-65
2024/01/22 07:53:35;;;;;;;15.45;6.38;;;;;;;0.26;100.00;94417.94;5048905;28;20048;-66
2024/01/22 07:56:02;;;;;;;13.35;6.97;;;;;;;0.41;100.00;94419.97;5049303;28;20472;-66
2024/01/22 07:58:30;;;;;;;13.95;7.75;;;;;;;0.42;100.00;94416.16;5048481;28;20047;-66
2024/01/22 08:00:59;;;;;;;13.20;6.33;;;;;;;0.59;100.00;94426.72;5049280;28;20389;-65
2024/01/22 08:03:26;;;;;;;14.25;6.75;;;;;;;0.66;100.00;94423.44;5036117;28;20150;-65
2024/01/22 08:05:53;;;;;;;13.35;7.13;;;;;;;0.66;100.00;94436.94;5028269;28;20685;-65
2024/01/22 08:08:20;;;;;;;11.77;6.32;;;;;;;0.78;100.00;94431.50;5029187;28;20052;-65
2024/01/22 08:10:47;;;;;;;12.50;6.57;;;;;;;0.81;100.00;94424.66;5028863;28;20045;-66
2024/01/22 08:13:14;;;;;;;15.07;7.47;;;;;;;0.92;100.00;94419.56;5029327;28;20050;-65
2024/01/22 08:15:41;;;;;;;14.13;7.07;;;;;;;0.85;100.00;94412.06;5028627;28;20045;-65
2024/01/22 08:18:08;;;;;;;14.98;8.07;;;;;;;0.71;100.00;94409.72;5028950;28;20041;-65
2024/01/22 08:20:35;;;;;;;18.25;9.57;;;;;;;0.90;100.00;94392.09;5028508;28;20080;-65
2024/01/22 08:23:02;;;;;;;17.45;8.13;;;;;;;0.94;100.00;94391.06;5028898;28;20042;-65
2024/01/22 08:25:29;;;;;;;13.37;6.20;;;;;;;1.04;100.00;94383.63;5028837;28;20057;-65
2024/01/22 08:27:56;;;;;;;11.63;6.03;;;;;;;1.19;100.00;94380.97;5028990;28;20050;-65
2024/01/22 08:30:22;;;;;;;13.25;6.20;;;;;;;1.30;100.00;94386.66;5029296;28;20160;-65
2024/01/22 08:32:51;;;;;;;9.30;5.13;;;;;;;1.37;100.00;94394.19;5027273;28;20077;-66
2024/01/22 08:35:19;;;;;;;13.25;6.68;;;;;;;1.39;100.00;94397.34;5028803;28;20135;-65
2024/01/22 08:37:52;;;;;;;10.23;5.50;;;;;;;1.46;100.00;94402.16;5028749;28;20611;-66
2024/01/22 08:40:22;;;;;;;10.13;5.28;;;;;;;1.56;100.00;94412.47;5029359;28;20370;-65
2024/01/22 08:42:54;;;;;;;12.50;6.90;;;;;;;1.62;100.00;94392.16;5032792;28;20044;-65
2024/01/22 08:45:21;;;;;;;13.48;7.13;;;;;;;1.80;100.00;94395.31;5032781;28;20045;-66
2024/01/22 08:47:49;;;;;;;13.23;7.55;;;;;;;1.89;100.00;94409.47;5032090;28;20402;-66
2024/01/22 08:50:23;;;;;;;14.80;7.20;;;;;;;2.05;100.00;94409.47;5032849;28;20051;-66
2024/01/22 08:52:54;;;;;;;13.60;6.38;;;;;;;2.20;100.00;94403.28;5032198;28;20498;-66
2024/01/22 08:55:23;;;;;;;12.13;6.13;;;;;;;2.39;100.00;94383.63;5032720;28;20491;-66
2024/01/22 08:57:53;;;;;;;12.25;6.22;;;;;;;2.40;100.00;94377.03;5032317;28;20436;-66
2024/01/22 09:00:21;;;;;;;14.80;7.45;;;;;;;2.35;100.00;94366.47;5032876;28;20052;-66
2024/01/22 09:02:49;;;;;;;22.10;10.13;;;;;;;2.33;100.00;94387.69;5031955;28;20088;-66
2024/01/22 09:05:17;;;;;;;13.13;6.40;;;;;;;2.66;100.00;94372.97;5032329;28;20048;-66
2024/01/22 09:07:45;;;;;;;21.60;10.35;;;;;;;2.90;100.00;94346.78;5031599;28;20049;-66
2024/01/22 09:10:12;;;;;;;10.70;5.43;;;;;;;3.26;100.00;94344.75;5032099;28;20068;-66
2024/01/22 09:12:39;;;;;;;10.30;5.40;;;;;;;3.50;100.00;94335.50;5030510;28;20037;-66
2024/01/22 09:15:06;;;;;;;8.63;5.03;;;;;;;3.48;100.00;94337.81;5032358;28;20452;-66
2024/01/22 09:17:35;;;;;;;10.73;5.28;;;;;;;3.45;100.00;94328.47;5031407;28;20100;-66
2024/01/22 09:20:04;;;;;;;7.93;4.00;;;;;;;3.46;100.00;94321.91;5031493;28;20041;-66
2024/01/22 09:22:31;;;;;;;8.90;3.95;;;;;;;3.57;100.00;94325.56;5031847;28;20056;-65
2024/01/22 09:24:57;;;;;;;8.20;3.53;;;;;;;3.77;100.00;94339.09;5031833;28;20094;-66
2024/01/22 09:27:25;;;;;;;10.83;4.60;;;;;;;3.92;100.00;94338.19;5047345;28;20071;-66
2024/01/22 09:29:51;;;;;;;15.13;6.00;;;;;;;3.97;100.00;94335.19;5031601;28;20295;-66
2024/01/22 09:32:19;;;;;;;10.75;5.30;;;;;;;4.08;100.00;94332.63;5030222;28;20099;-66
2024/01/22 09:34:46;;;;;;;10.32;4.57;;;;;;;4.24;100.00;94340.66;5031046;28;20075;-66
2024/01/22 09:37:13;;;;;;;12.35;6.07;;;;;;;4.17;100.00;94340.53;5031846;28;20053;-66
2024/01/22 09:39:40;;;;;;;10.93;5.33;;;;;;;4.13;100.00;94335.06;5031252;28;20422;-66
2024/01/22 09:42:09;;;;;;;9.82;4.72;;;;;;;4.02;100.00;94333.31;5031813;28;20126;-66
2024/01/22 09:44:36;;;;;;;8.43;4.43;;;;;;;4.06;100.00;94334.94;5031292;28;20053;-66
2024/01/22 09:47:03;;;;;;;10.13;4.65;;;;;;;4.12;100.00;94333.47;5031841;28;20417;-66
2024/01/22 09:49:30;;;;;;;9.55;4.28;;;;;;;4.18;100.00;94315.72;5031150;28;20080;-66
2024/01/22 09:51:57;;;;;;;13.67;5.80;;;;;;;4.27;100.00;94309.25;5031102;28;20042;-66
2024/01/22 09:54:29;;;;;;;12.07;5.57;;;;;;;4.40;100.00;94316.03;5046715;28;20410;-65
2024/01/22 09:56:57;;;;;;;10.43;5.22;;;;;;;4.64;100.00;94295.81;5030918;28;20418;-66
2024/01/22 09:59:29;;;;;;;10.52;5.22;;;;;;;4.91;100.00;94296.53;5031290;28;20064;-66
2024/01/22 10:01:56;;;;;;;13.95;7.32;;;;;;;5.05;100.00;94284.25;5050463;28;22522;-67
2024/01/22 10:04:24;;;;;;;12.63;5.43;;;;;;;5.08;100.00;94281.56;5051166;28;20057;-66
2024/01/22 10:06:52;;;;;;;15.30;6.40;;;;;;;5.24;100.00;94275.16;5050697;28;20386;-67
2024/01/22 10:09:19;;;;;;;11.38;5.15;;;;;;;5.84;100.00;94274.19;5051198;28;20041;-67
2024/01/22 10:11:47;;;;;;;7.45;4.05;;;;;;;6.19;100.00;94246.44;5050630;28;20048;-67
2024/01/22 10:14:14;;;;;;;10.43;5.20;;;;;;;6.27;100.00;94250.00;5050708;28;20045;-67
2024/01/22 10:16:40;;;;;;;6.00;3.47;;;;;;;6.31;100.00;94248.06;5050059;28;20488;-66
2024/01/22 10:19:09;;;;;;;9.15;4.32;;;;;;;7.13;100.00;94237.53;5051223;28;20037;-67
2024/01/22 10:21:38;;;;;;;7.45;3.67;;;;;;;7.02;100.00;94222.28;5050354;28;20049;-66
2024/01/22 10:24:07;;;;;;;8.73;3.92;;;;;;;8.63;94.04;94213.34;5050926;28;20654;-67
2024/01/22 10:26:36;;;;;;;8.25;4.07;;;;;;;9.03;89.33;94224.94;5050271;28;20037;-67
2024/01/22 10:29:18;;;;;;;5.43;2.80;;;;;;;7.78;97.64;94227.50;5051031;28;20043;-67
2024/01/22 10:31:59;;;;;;;8.45;3.05;;;;;;;7.47;100.00;94225.53;5048211;28;20045;-67
2024/01/22 10:34:29;;;;;;;6.63;2.58;;;;;;;7.28;100.00;94215.75;5050582;28;20075;-67
2024/01/22 10:37:05;;;;;;;9.00;4.68;;;;;;;7.25;100.00;94211.84;5049753;28;20412;-67
2024/01/22 10:39:36;;;;;;;6.97;3.33;;;;;;;7.51;100.00;94201.75;5050237;28;20045;-66
2024/01/22 10:42:14;;;;;;;6.60;3.50;;;;;;;7.46;100.00;94183.00;5050925;28;20047;-67
2024/01/22 10:44:44;;;;;;;4.10;1.77;;;;;;;7.78;100.00;94189.25;5050181;28;20045;-66
2024/01/22 10:47:13;;;;;;;5.07;2.33;;;;;;;7.93;100.00;94186.53;5050591;28;20060;-67
2024/01/22 10:49:44;;;;;;;5.40;2.70;;;;;;;7.89;100.00;94189.25;5049656;28;20045;-66
2024/01/22 10:52:17;;;;;;;5.57;2.47;;;;;;;8.21;100.00;94177.50;5050583;28;20045;-67
2024/01/22 10:54:44;;;;;;;3.30;1.73;;;;;;;8.20;100.00;94187.66;5049935;28;20041;-66
2024/01/22 10:57:18;;;;;;;4.68;2.60;;;;;;;8.42;100.00;94151.31;5050333;28;20049;-67
2024/01/22 10:59:49;;;;;;;8.00;4.03;;;;;;;8.56;100.00;94170.41;5049507;28;20071;-66
2024/01/22 11:02:22;;;;;;;8.18;4.00;;;;;;;8.52;100.00;94161.44;5050274;28;20044;-67
2024/01/22 11:04:58;;;;;;;15.02;8.57;;;;;;;8.47;100.00;94165.38;5048610;28;20907;-67
2024/01/22 11:07:30;;;;;;;4.47;2.00;;;;;;;8.63;100.00;94143.00;5049992;28;20100;-67
2024/01/22 11:09:58;;;;;;;7.38;4.18;;;;;;;8.92;100.00;94134.69;5049165;28;20033;-66
2024/01/22 11:12:39;;;;;;;7.40;3.30;;;;;;;9.22;100.00;94114.16;5037485;28;20048;-64
2024/01/22 11:15:06;;;;;;;4.88;2.42;;;;;;;9.31;100.00;94125.44;5048719;28;20044;-66
2024/01/22 11:17:33;;;;;;;4.00;2.35;;;;;;;9.43;100.00;94119.47;5049582;28;20068;-67
2024/01/22 11:20:20;;;;;;;2.73;1.40;;;;;;;9.60;100.00;94126.78;5048294;28;20041;-67
2024/01/22 11:23:16;;;;;;;2.80;1.40;;;;;;;9.95;100.00;94115.91;5049616;28;20401;-67